createdAt,value
2019-01-18T00:01:19.486Z,6.37
2019-01-18T00:04:06.284Z,6.43
2019-01-18T00:06:47.401Z,7.67
2019-01-18T00:09:14.789Z,10.67
2019-01-18T00:11:42.220Z,5.83
2019-01-18T00:14:09.585Z,5.87
2019-01-18T00:16:36.908Z,4.90
2019-01-18T00:19:04.332Z,6.97
2019-01-18T00:21:31.876Z,7.40
2019-01-18T00:23:59.212Z,4.03
2019-01-18T00:26:26.587Z,5.20
2019-01-18T00:28:53.931Z,8.53
2019-01-18T00:31:21.390Z,4.97
2019-01-18T00:33:48.749Z,3.17
2019-01-18T00:36:16.116Z,4.40
2019-01-18T00:38:43.499Z,7.43
2019-01-18T00:41:10.854Z,4.90
2019-01-18T00:43:38.195Z,8.80
2019-01-18T00:46:05.525Z,7.73
2019-01-18T00:48:47.383Z,7.27
2019-01-18T00:51:14.816Z,10.93
2019-01-18T00:53:42.192Z,6.40
2019-01-18T00:56:09.519Z,10.00
2019-01-18T00:58:36.923Z,6.17
2019-01-18T01:01:04.279Z,8.03
2019-01-18T01:03:31.587Z,6.97
2019-01-18T01:05:58.933Z,14.30
2019-01-18T01:08:26.334Z,9.33
2019-01-18T01:10:53.648Z,7.90
2019-01-18T01:13:21.062Z,5.43
2019-01-18T01:16:01.863Z,10.10
2019-01-18T01:18:30.990Z,10.97
2019-01-18T01:20:59.743Z,11.47
2019-01-18T01:23:27.149Z,7.50
2019-01-18T01:25:55.884Z,8.60
2019-01-18T01:28:23.224Z,5.90
2019-01-18T01:30:50.579Z,11.07
2019-01-18T01:33:17.979Z,9.13
2019-01-18T01:36:04.775Z,6.33
2019-01-18T01:38:32.149Z,6.03
2019-01-18T01:40:59.539Z,9.27
2019-01-18T01:43:48.130Z,6.67
2019-01-18T01:46:15.694Z,7.10
2019-01-18T01:48:43.457Z,8.43
2019-01-18T01:51:10.820Z,9.70
2019-01-18T01:53:38.231Z,6.67
2019-01-18T01:56:05.575Z,7.07
2019-01-18T01:58:33.058Z,7.80
2019-01-18T02:01:00.390Z,5.67
2019-01-18T02:03:27.727Z,6.47
2019-01-18T02:05:55.092Z,6.13
2019-01-18T02:08:22.419Z,9.70
2019-01-18T02:10:49.772Z,11.33
2019-01-18T02:13:17.147Z,6.70
2019-01-18T02:15:44.478Z,6.73
2019-01-18T02:18:11.867Z,5.20
2019-01-18T02:20:39.302Z,11.60
2019-01-18T02:23:06.652Z,4.40
2019-01-18T02:25:34.074Z,4.63
2019-01-18T02:28:01.412Z,9.30
2019-01-18T02:30:28.886Z,10.77
2019-01-18T02:32:56.336Z,6.30
2019-01-18T02:35:23.719Z,6.17
2019-01-18T02:37:51.071Z,6.27
2019-01-18T02:40:18.415Z,10.70
2019-01-18T02:42:45.761Z,7.60
2019-01-18T02:45:15.012Z,11.47
2019-01-18T02:47:42.324Z,6.20
2019-01-18T02:50:09.758Z,7.47
2019-01-18T02:52:37.144Z,7.37
2019-01-18T02:55:05.090Z,8.60
2019-01-18T02:57:32.439Z,7.17
2019-01-18T03:00:04.615Z,7.97
2019-01-18T03:02:29.062Z,11.70
2019-01-18T03:04:56.447Z,7.40
2019-01-18T03:07:23.842Z,5.17
2019-01-18T03:09:51.176Z,9.43
2019-01-18T03:12:18.494Z,7.53
2019-01-18T03:14:45.832Z,8.53
2019-01-18T03:17:13.191Z,7.73
2019-01-18T03:19:41.328Z,5.53
2019-01-18T03:22:08.666Z,8.13
2019-01-18T03:24:36.352Z,4.87
2019-01-18T03:27:03.782Z,6.07
2019-01-18T03:29:31.140Z,7.27
2019-01-18T03:31:58.513Z,7.30
2019-01-18T03:34:26.024Z,6.37
2019-01-18T03:36:53.496Z,4.63
2019-01-18T03:39:40.283Z,6.00
2019-01-18T03:42:08.218Z,8.53
2019-01-18T03:44:35.555Z,7.97
2019-01-18T03:47:02.919Z,6.40
2019-01-18T03:49:30.244Z,10.57
2019-01-18T03:51:57.540Z,7.43
2019-01-18T03:54:24.880Z,6.57
2019-01-18T03:56:52.208Z,5.90
2019-01-18T03:59:19.559Z,8.27
2019-01-18T04:01:47.034Z,7.37
2019-01-18T04:04:14.443Z,8.43
2019-01-18T04:06:41.746Z,7.23
2019-01-18T04:09:09.098Z,6.13
2019-01-18T04:11:36.425Z,7.47
2019-01-18T04:14:04.688Z,5.90
2019-01-18T04:16:32.406Z,6.73
2019-01-18T04:18:59.762Z,10.03
2019-01-18T04:21:27.775Z,11.77
2019-01-18T04:23:55.308Z,4.80
2019-01-18T04:26:24.302Z,8.83
2019-01-18T04:28:51.638Z,7.13
2019-01-18T04:31:18.982Z,9.37
2019-01-18T04:33:46.723Z,6.70
2019-01-18T04:36:14.043Z,7.27
2019-01-18T04:38:41.371Z,4.53
2019-01-18T04:41:08.722Z,4.70
2019-01-18T04:43:36.068Z,8.87
2019-01-18T04:46:03.427Z,10.93
2019-01-18T04:48:30.933Z,9.03
2019-01-18T04:50:58.314Z,7.70
2019-01-18T04:53:25.681Z,5.87
2019-01-18T04:55:53.155Z,6.57
2019-01-18T04:58:39.984Z,3.80
2019-01-18T05:01:07.429Z,4.90
2019-01-18T05:03:35.289Z,9.40
2019-01-18T05:06:02.729Z,5.37
2019-01-18T05:08:30.194Z,8.57
2019-01-18T05:11:18.266Z,5.30
2019-01-18T05:13:48.786Z,5.43
2019-01-18T05:16:16.453Z,7.70
2019-01-18T05:18:43.902Z,7.13
2019-01-18T05:21:11.245Z,5.70
2019-01-18T05:23:38.602Z,11.77
2019-01-18T05:26:05.972Z,7.90
2019-01-18T05:28:33.327Z,7.70
2019-01-18T05:31:00.718Z,6.13
2019-01-18T05:33:28.106Z,4.30
2019-01-18T05:35:55.437Z,7.60
2019-01-18T05:38:22.733Z,11.80
2019-01-18T05:40:50.068Z,6.83
2019-01-18T05:43:17.394Z,6.83
2019-01-18T05:45:44.762Z,6.90
2019-01-18T05:48:12.198Z,6.13
2019-01-18T05:50:39.550Z,6.33
2019-01-18T05:53:07.235Z,9.03
2019-01-18T05:55:54.050Z,6.50
2019-01-18T05:58:21.380Z,8.63
2019-01-18T06:01:02.443Z,8.20
2019-01-18T06:03:29.845Z,6.10
2019-01-18T06:06:10.145Z,7.87
2019-01-18T06:08:37.921Z,9.03
2019-01-18T06:11:05.282Z,9.73
2019-01-18T06:13:32.641Z,8.23
2019-01-18T06:16:00.023Z,6.83
2019-01-18T06:18:27.379Z,9.47
2019-01-18T06:20:54.699Z,9.67
2019-01-18T06:23:22.039Z,7.03
2019-01-18T06:25:49.375Z,6.70
2019-01-18T06:28:16.770Z,8.53
2019-01-18T06:30:44.115Z,7.10
2019-01-18T06:33:11.467Z,7.17
2019-01-18T06:35:38.817Z,9.87
2019-01-18T06:38:06.190Z,7.43
2019-01-18T06:40:33.692Z,8.07
2019-01-18T06:43:04.656Z,5.27
2019-01-18T06:45:32.737Z,7.73
2019-01-18T06:48:00.104Z,3.63
2019-01-18T06:50:27.415Z,5.87
2019-01-18T06:52:54.792Z,6.73
2019-01-18T06:55:23.102Z,11.63
2019-01-18T06:57:50.439Z,11.50
2019-01-18T07:00:29.340Z,7.20
2019-01-18T07:02:56.803Z,5.87
2019-01-18T07:05:26.245Z,7.57
2019-01-18T07:07:54.212Z,11.30
2019-01-18T07:10:21.648Z,6.07
2019-01-18T07:12:49.001Z,9.47
2019-01-18T07:15:17.896Z,10.00
2019-01-18T07:17:45.249Z,8.40
2019-01-18T07:21:08.618Z,9.27
2019-01-18T07:23:55.871Z,6.77
2019-01-18T07:26:23.260Z,7.90
2019-01-18T07:28:51.802Z,7.03
2019-01-18T07:31:19.394Z,8.67
2019-01-18T07:33:46.855Z,8.50
2019-01-18T07:36:14.211Z,11.17
2019-01-18T07:38:43.428Z,10.67
2019-01-18T07:41:10.782Z,9.07
2019-01-18T07:43:38.279Z,11.07
2019-01-18T07:46:05.604Z,8.77
2019-01-18T07:48:32.979Z,13.50
2019-01-18T07:51:00.427Z,9.20
2019-01-18T07:53:27.758Z,10.03
2019-01-18T07:55:55.136Z,9.17
2019-01-18T07:58:22.474Z,8.27
2019-01-18T08:00:50.605Z,8.63
2019-01-18T08:03:17.949Z,11.50
2019-01-18T08:05:45.387Z,12.07
2019-01-18T08:08:13.086Z,8.97
2019-01-18T08:10:40.684Z,8.00
2019-01-18T08:13:08.027Z,13.30
2019-01-18T08:15:35.470Z,8.97
2019-01-18T08:18:02.822Z,7.83
2019-01-18T08:20:30.557Z,11.57
2019-01-18T08:22:58.523Z,12.37
2019-01-18T08:25:25.939Z,13.23
2019-01-18T08:27:53.306Z,9.07
2019-01-18T08:30:22.504Z,10.80
2019-01-18T08:32:49.959Z,9.27
2019-01-18T08:35:18.676Z,13.50
2019-01-18T08:37:46.052Z,14.23
2019-01-18T08:40:22.171Z,6.07
2019-01-18T08:42:49.539Z,8.67
2019-01-18T08:45:20.262Z,6.87
2019-01-18T08:47:47.630Z,9.90
2019-01-18T08:50:15.207Z,11.23
2019-01-18T08:52:42.530Z,13.83
2019-01-18T08:55:09.908Z,9.73
2019-01-18T08:57:37.318Z,11.63
2019-01-18T09:00:06.142Z,13.93
2019-01-18T09:02:33.502Z,7.87
2019-01-18T09:05:00.966Z,10.83
2019-01-18T09:07:28.270Z,11.90
2019-01-18T09:09:55.639Z,11.03
2019-01-18T09:12:23.091Z,8.37
2019-01-18T09:14:50.506Z,9.43
2019-01-18T09:17:17.982Z,7.87
2019-01-18T09:19:45.284Z,12.23
2019-01-18T09:22:12.691Z,5.37
2019-01-18T09:24:40.027Z,11.53
2019-01-18T09:27:07.384Z,12.53
2019-01-18T09:29:35.728Z,9.90
2019-01-18T09:32:03.049Z,12.97
2019-01-18T09:34:30.387Z,9.27
2019-01-18T09:36:57.810Z,10.73
2019-01-18T09:39:25.131Z,11.40
2019-01-18T09:41:54.054Z,8.03
2019-01-18T09:44:21.387Z,10.47
2019-01-18T09:46:48.713Z,9.20
2019-01-18T09:49:16.026Z,9.67
2019-01-18T09:51:43.338Z,10.03
2019-01-18T09:54:10.694Z,10.90
2019-01-18T09:56:38.074Z,5.20
2019-01-18T09:59:05.466Z,10.07
2019-01-18T10:01:32.799Z,9.23
2019-01-18T10:04:00.083Z,8.23
2019-01-18T10:06:27.399Z,16.80
2019-01-18T10:08:54.703Z,10.10
2019-01-18T10:11:22.046Z,11.03
2019-01-18T10:13:49.439Z,10.40
2019-01-18T10:16:16.758Z,12.97
2019-01-18T10:18:44.135Z,7.57
2019-01-18T10:21:11.483Z,9.77
2019-01-18T10:23:38.848Z,10.80
2019-01-18T10:26:06.642Z,21.60
2019-01-18T10:28:34.086Z,7.17
2019-01-18T10:31:01.486Z,14.80
2019-01-18T10:33:28.860Z,13.73
2019-01-18T10:36:16.081Z,11.17
2019-01-18T10:38:43.490Z,11.57
2019-01-18T10:41:10.866Z,12.53
2019-01-18T10:43:38.490Z,14.17
2019-01-18T10:46:05.823Z,8.37
2019-01-18T10:48:33.381Z,11.97
2019-01-18T10:51:00.795Z,8.80
2019-01-18T10:53:47.888Z,12.47
2019-01-18T10:56:37.959Z,11.80
2019-01-18T10:59:16.414Z,11.43
2019-01-18T11:01:59.518Z,13.43
2019-01-18T11:04:22.275Z,22.37
2019-01-18T11:06:49.687Z,13.17
2019-01-18T11:09:17.040Z,8.90
2019-01-18T11:11:44.379Z,9.47
2019-01-18T11:14:11.706Z,6.77
2019-01-18T11:16:39.142Z,9.90
2019-01-18T11:19:06.552Z,10.43
2019-01-18T11:21:34.503Z,11.90
2019-01-18T11:24:01.857Z,7.67
2019-01-18T11:26:49.086Z,8.80
2019-01-18T11:29:16.567Z,13.73
2019-01-18T11:31:43.964Z,11.80
2019-01-18T11:34:11.355Z,9.73
2019-01-18T11:36:38.759Z,9.00
2019-01-18T11:39:25.677Z,12.90
2019-01-18T11:41:53.097Z,8.17
2019-01-18T11:44:20.441Z,11.17
2019-01-18T11:46:53.124Z,6.33
2019-01-18T11:49:20.523Z,10.70
2019-01-18T11:51:47.985Z,7.30
2019-01-18T11:54:15.299Z,14.27
2019-01-18T11:56:42.677Z,9.67
2019-01-18T11:59:10.062Z,9.33
2019-01-18T12:01:38.980Z,11.80
2019-01-18T12:04:06.438Z,10.40
2019-01-18T12:06:33.849Z,8.03
2019-01-18T12:09:01.285Z,5.40
2019-01-18T12:11:30.220Z,7.20
2019-01-18T12:13:57.805Z,11.17
2019-01-18T12:16:25.412Z,9.33
2019-01-18T12:18:54.295Z,10.60
2019-01-18T12:21:21.643Z,13.00
2019-01-18T12:23:49.025Z,11.90
2019-01-18T12:26:16.398Z,9.43
2019-01-18T12:28:43.825Z,12.87
2019-01-18T12:31:11.191Z,10.90
2019-01-18T12:33:38.670Z,9.37
2019-01-18T12:36:06.016Z,9.40
2019-01-18T12:38:33.341Z,12.40
2019-01-18T12:41:00.650Z,6.93
2019-01-18T12:43:28.094Z,9.23
2019-01-18T12:45:55.474Z,10.27
2019-01-18T12:48:22.806Z,10.13
2019-01-18T12:50:50.179Z,9.13
2019-01-18T12:53:17.559Z,8.50
2019-01-18T12:55:44.896Z,8.97
2019-01-18T12:58:12.250Z,9.03
2019-01-18T13:00:39.587Z,10.87
2019-01-18T13:03:07.615Z,9.73
2019-01-18T13:05:38.358Z,13.43
2019-01-18T13:08:05.706Z,11.97
2019-01-18T13:10:33.067Z,11.83
2019-01-18T13:13:00.402Z,11.40
2019-01-18T13:15:31.751Z,13.43
2019-01-18T13:17:59.092Z,12.53
2019-01-18T13:20:26.447Z,13.87
2019-01-18T13:22:53.831Z,12.97
2019-01-18T13:25:21.147Z,13.53
2019-01-18T13:27:48.508Z,9.83
2019-01-18T13:30:15.923Z,13.77
2019-01-18T13:32:43.258Z,11.53
2019-01-18T13:35:10.683Z,13.97
2019-01-18T13:37:38.032Z,9.43
2019-01-18T13:40:09.711Z,12.50
2019-01-18T13:42:37.104Z,16.53
2019-01-18T13:45:05.624Z,12.83
2019-01-18T13:47:33.847Z,17.73
2019-01-18T13:50:01.196Z,12.93
2019-01-18T13:52:28.482Z,13.70
2019-01-18T13:54:55.815Z,12.33
2019-01-18T13:57:23.130Z,11.50
2019-01-18T13:59:50.432Z,18.83
2019-01-18T14:02:18.271Z,12.17
2019-01-18T14:04:45.598Z,13.20
2019-01-18T14:07:12.939Z,12.40
2019-01-18T14:09:40.258Z,14.63
2019-01-18T14:12:07.586Z,12.33
2019-01-18T14:14:34.897Z,13.00
2019-01-18T14:17:02.246Z,12.40
2019-01-18T14:19:29.610Z,12.97
2019-01-18T14:21:56.939Z,9.03
2019-01-18T14:24:24.249Z,11.97
2019-01-18T14:26:51.563Z,14.20
2019-01-18T14:29:18.892Z,13.03
2019-01-18T14:31:46.211Z,12.73
2019-01-18T14:34:13.663Z,10.47
2019-01-18T14:36:40.967Z,11.90
2019-01-18T14:39:09.474Z,10.07
2019-01-18T14:41:36.831Z,10.27
2019-01-18T14:44:04.275Z,10.13
2019-01-18T14:46:31.622Z,11.60
2019-01-18T14:48:58.988Z,13.97
2019-01-18T14:51:26.306Z,10.20
2019-01-18T14:53:54.451Z,12.83
2019-01-18T14:56:21.823Z,11.70
2019-01-18T14:58:52.809Z,17.53
2019-01-18T15:01:20.139Z,14.63
2019-01-18T15:03:47.520Z,9.53
2019-01-18T15:06:14.894Z,9.67
2019-01-18T15:08:42.264Z,12.80
2019-01-18T15:11:11.131Z,13.33
2019-01-18T15:13:38.503Z,12.83
2019-01-18T15:16:05.883Z,11.47
2019-01-18T15:18:34.435Z,10.37
2019-01-18T15:21:01.774Z,11.87
2019-01-18T15:23:48.554Z,10.27
2019-01-18T15:26:18.527Z,14.13
2019-01-18T15:28:45.083Z,11.63
2019-01-18T15:31:12.427Z,14.80
2019-01-18T15:33:41.510Z,15.40
2019-01-18T15:36:28.392Z,10.00
2019-01-18T15:38:55.712Z,10.87
2019-01-18T15:41:23.184Z,11.37
2019-01-18T15:43:50.556Z,11.03
2019-01-18T15:46:17.864Z,15.93
2019-01-18T15:48:45.195Z,14.60
2019-01-18T15:51:12.515Z,10.27
2019-01-18T15:53:39.869Z,13.40
2019-01-18T15:56:07.206Z,12.93
2019-01-18T15:58:54.007Z,17.10
2019-01-18T16:01:21.346Z,16.70
2019-01-18T16:03:48.642Z,15.53
2019-01-18T16:06:16.348Z,14.10
2019-01-18T16:08:43.695Z,13.50
2019-01-18T16:11:11.055Z,13.70
2019-01-18T16:13:38.478Z,15.57
2019-01-18T16:18:51.032Z,17.17
2019-01-18T16:21:18.425Z,14.20
2019-01-18T16:23:46.182Z,21.27
2019-01-18T16:26:13.571Z,18.30
2019-01-18T16:28:40.913Z,19.37
2019-01-18T16:31:08.307Z,15.43
2019-01-18T16:33:35.676Z,14.93
2019-01-18T16:36:03.041Z,23.30
2019-01-18T16:38:32.216Z,15.83
2019-01-18T16:40:59.563Z,15.93
2019-01-18T16:43:40.574Z,18.87
2019-01-18T16:46:07.929Z,16.07
2019-01-18T16:48:35.254Z,14.23
2019-01-18T16:51:22.210Z,16.87
2019-01-18T16:53:49.548Z,17.97
2019-01-18T16:56:16.907Z,18.73
2019-01-18T16:58:44.248Z,24.03
2019-01-18T17:01:11.570Z,18.10
2019-01-18T17:03:38.914Z,17.43
2019-01-18T17:06:06.926Z,21.70
2019-01-18T17:08:34.451Z,27.33
2019-01-18T17:11:03.254Z,18.87
2019-01-18T17:13:34.247Z,21.93
2019-01-18T17:16:01.661Z,18.90
2019-01-18T17:18:29.100Z,17.43
2019-01-18T17:20:56.451Z,15.37
2019-01-18T17:23:24.044Z,18.23
2019-01-18T17:25:51.483Z,21.57
2019-01-18T17:28:18.932Z,18.13
2019-01-18T17:30:46.332Z,15.97
2019-01-18T17:33:13.695Z,18.87
2019-01-18T17:36:09.263Z,28.33
2019-01-18T17:39:33.865Z,17.83
2019-01-18T17:42:20.699Z,16.23
2019-01-18T17:45:30.226Z,15.87
2019-01-18T17:48:12.210Z,16.50
2019-01-18T17:51:29.332Z,16.53
2019-01-18T17:54:36.348Z,19.83
2019-01-18T17:57:34.555Z,22.20
2019-01-18T18:00:53.231Z,32.83
2019-01-18T18:04:04.332Z,19.47
2019-01-18T18:06:53.875Z,17.07
2019-01-18T18:09:28.745Z,17.23
2019-01-18T18:12:31.302Z,24.20
2019-01-18T18:15:39.014Z,19.73
2019-01-18T18:18:31.966Z,23.97
2019-01-18T18:21:40.277Z,28.50
2019-01-18T18:24:46.622Z,25.40
2019-01-18T18:28:14.131Z,31.87
2019-01-18T18:30:52.123Z,27.97
2019-01-18T18:34:06.159Z,32.20
2019-01-18T18:37:21.382Z,33.40
2019-01-18T18:43:57.224Z,39.20
2019-01-18T18:47:09.374Z,37.80
2019-01-18T18:50:03.427Z,39.53
2019-01-18T18:52:52.338Z,38.60
2019-01-18T18:56:01.519Z,41.30
2019-01-18T18:58:56.636Z,41.50
2019-01-18T19:01:56.436Z,65.10
2019-01-18T19:04:52.242Z,37.80
2019-01-18T19:11:00.519Z,39.20
2019-01-18T19:14:15.450Z,41.47
2019-01-18T19:17:02.607Z,41.33
2019-01-18T19:20:15.002Z,42.60
2019-01-18T19:23:04.994Z,38.87
2019-01-18T19:25:44.067Z,42.37
2019-01-18T19:28:48.103Z,39.47
2019-01-18T19:31:42.583Z,37.77
2019-01-18T19:34:43.749Z,35.57
2019-01-18T19:38:02.365Z,32.03
2019-01-18T19:40:45.107Z,32.60
2019-01-18T19:43:43.517Z,38.30
2019-01-18T19:46:46.155Z,30.80
2019-01-18T19:49:58.042Z,36.20
2019-01-18T19:53:03.020Z,30.33
2019-01-18T19:56:07.893Z,33.33
2019-01-18T19:59:03.727Z,32.47
2019-01-18T20:02:06.636Z,31.97
2019-01-18T20:05:27.544Z,34.43
2019-01-18T20:08:40.118Z,31.27
2019-01-18T20:11:51.166Z,28.30
2019-01-18T20:15:00.172Z,28.90
2019-01-18T20:18:18.658Z,27.97
2019-01-18T20:21:02.489Z,31.87
2019-01-18T20:24:10.859Z,31.80
2019-01-18T20:27:07.739Z,29.33
2019-01-18T20:30:19.347Z,32.20
2019-01-18T20:33:37.215Z,28.30
2019-01-18T20:36:34.983Z,24.40
2019-01-18T20:39:44.323Z,26.37
2019-01-18T20:42:37.540Z,24.97
2019-01-18T20:45:41.803Z,22.10
2019-01-18T20:48:36.674Z,28.07
2019-01-18T20:51:51.867Z,28.27
2019-01-18T20:54:47.208Z,31.60
2019-01-18T20:58:11.468Z,27.93
2019-01-18T21:01:20.261Z,24.27
2019-01-18T21:08:15.245Z,27.73
2019-01-18T21:11:17.703Z,30.73
2019-01-18T21:14:13.248Z,35.33
2019-01-18T21:17:34.700Z,35.03
2019-01-18T21:20:39.267Z,34.73
2019-01-18T21:23:39.949Z,46.20
2019-01-18T21:26:38.943Z,52.20
2019-01-18T21:29:43.704Z,48.07
2019-01-18T21:32:42.390Z,40.10
2019-01-18T21:35:47.206Z,43.20
2019-01-18T21:38:43.156Z,49.20
2019-01-18T21:41:42.146Z,45.07
2019-01-18T21:44:44.475Z,50.90
2019-01-18T21:47:27.689Z,64.30
2019-01-18T21:50:20.615Z,49.97
2019-01-18T21:53:26.919Z,45.90
2019-01-18T21:56:06.650Z,50.40
2019-01-18T21:59:12.880Z,60.00
2019-01-18T22:02:37.232Z,45.90
2019-01-18T22:05:46.458Z,48.90
2019-01-18T22:08:52.732Z,49.97
2019-01-18T22:11:57.070Z,52.63
2019-01-18T22:14:54.164Z,57.20
2019-01-18T22:17:47.526Z,48.43
2019-01-18T22:20:50.158Z,60.50
2019-01-18T22:23:49.743Z,57.77
2019-01-18T22:26:43.207Z,60.70
2019-01-18T22:30:06.863Z,60.43
2019-01-18T22:33:31.200Z,51.50
2019-01-18T22:36:30.513Z,53.37
2019-01-18T22:39:21.932Z,50.03
2019-01-18T22:42:33.937Z,63.83
2019-01-18T22:45:39.743Z,51.37
2019-01-18T22:49:05.586Z,50.30
2019-01-18T22:51:54.500Z,57.50
2019-01-18T22:55:00.750Z,51.07
2019-01-18T22:57:47.273Z,54.60
2019-01-18T23:04:55.644Z,53.73
2019-01-18T23:07:35.516Z,51.77
2019-01-18T23:10:34.307Z,51.67
2019-01-18T23:13:40.054Z,49.40
2019-01-18T23:16:57.172Z,48.27
2019-01-18T23:19:40.720Z,51.40
2019-01-18T23:22:37.183Z,50.23
2019-01-18T23:25:38.319Z,49.40
2019-01-18T23:28:43.624Z,50.20
2019-01-18T23:31:36.685Z,53.87
2019-01-18T23:34:35.424Z,52.17
2019-01-18T23:37:34.532Z,48.00
2019-01-18T23:40:42.899Z,46.47
2019-01-18T23:43:26.447Z,45.00
2019-01-18T23:46:56.624Z,51.20
2019-01-18T23:50:01.699Z,49.23
2019-01-18T23:52:57.850Z,51.57
2019-01-18T23:56:04.106Z,40.10
2019-01-18T23:58:46.832Z,41.70
